Time;durP1;ratioP1;P1;durP2;ratioP2;P2;SDS_P1;SDS_P2;PMS_P1;PMS_P2;Temp;Humidity;BMP_temperature;BMP_pressure;BME280_temperature;BME280_humidity;BME280_pressure;Samples;Min_cycle;Max_cycle;Signal;HPM_P1;HPM_P2
2022/04/08 00:02:25;;;;;;;10.35;1.52;;;6.80;99.90;;;;;;5055843;28;38206;-49
2022/04/08 00:04:53;;;;;;;8.48;1.13;;;6.80;99.90;;;;;;5057239;28;37381;-50
2022/04/08 00:07:20;;;;;;;9.07;0.98;;;6.70;99.90;;;;;;5058308;28;37029;-50
2022/04/08 00:09:47;;;;;;;5.68;0.95;;;6.70;99.90;;;;;;5057932;28;37594;-51
2022/04/08 00:12:15;;;;;;;6.90;1.40;;;6.70;99.90;;;;;;5057036;28;37278;-49
2022/04/08 00:14:42;;;;;;;5.30;0.90;;;6.70;99.90;;;;;;5057792;28;37159;-57
2022/04/08 00:17:09;;;;;;;8.13;1.52;;;6.70;99.90;;;;;;5055889;28;39758;-57
2022/04/08 00:19:38;;;;;;;7.90;1.00;;;6.60;99.90;;;;;;5057557;28;36485;-57
2022/04/08 00:22:06;;;;;;;5.95;0.80;;;6.60;99.90;;;;;;5056684;28;35270;-57
2022/04/08 00:24:33;;;;;;;3.00;0.40;;;6.50;99.90;;;;;;5057095;28;38891;-57
2022/04/08 00:27:01;;;;;;;6.25;1.02;;;6.40;99.90;;;;;;5056871;28;38180;-58
2022/04/08 00:29:28;;;;;;;5.80;0.88;;;6.30;99.90;;;;;;5057004;28;38701;-57
2022/04/08 00:31:57;;;;;;;5.63;0.60;;;6.20;99.90;;;;;;5056828;28;37336;-57
2022/04/08 00:34:25;;;;;;;6.30;0.90;;;6.10;99.90;;;;;;5054970;28;37343;-57
2022/04/08 00:36:54;;;;;;;6.43;0.80;;;6.10;99.90;;;;;;5058069;28;39136;-57
2022/04/08 00:39:22;;;;;;;7.90;1.60;;;6.10;99.90;;;;;;5056942;28;36743;-51
2022/04/08 00:41:50;;;;;;;7.47;1.00;;;6.00;99.90;;;;;;5057281;28;38037;-52
2022/04/08 00:44:18;;;;;;;6.50;0.90;;;6.00;99.90;;;;;;5058043;28;37937;-57
2022/04/08 00:46:45;;;;;;;6.22;1.58;;;6.00;99.90;;;;;;5058023;28;38133;-57
2022/04/08 00:49:12;;;;;;;5.38;0.90;;;5.90;99.90;;;;;;5058570;28;38268;-57
2022/04/08 00:51:40;;;;;;;6.18;0.90;;;6.00;99.90;;;;;;5057501;28;37468;-58
2022/04/08 00:54:10;;;;;;;8.77;1.45;;;5.90;99.90;;;;;;5057028;28;37625;-55
2022/04/08 00:56:38;;;;;;;12.77;1.65;;;5.90;99.90;;;;;;5057710;28;36861;-58
2022/04/08 00:59:05;;;;;;;9.82;1.38;;;5.90;99.90;;;;;;5057560;28;37848;-51
2022/04/08 01:01:33;;;;;;;10.70;1.42;;;5.80;99.90;;;;;;5056653;28;36567;-49
2022/04/08 01:04:00;;;;;;;7.55;1.38;;;5.80;99.90;;;;;;5056405;28;39345;-52
2022/04/08 01:06:27;;;;;;;7.75;2.08;;;5.40;99.90;;;;;;5057147;28;38198;-49
2022/04/08 01:08:55;;;;;;;9.52;1.42;;;5.70;99.90;;;;;;5057123;28;39119;-49
2022/04/08 01:11:24;;;;;;;10.00;1.63;;;5.70;99.90;;;;;;5055514;28;35543;-51
2022/04/08 01:13:52;;;;;;;9.77;1.45;;;5.70;99.90;;;;;;5055741;28;38372;-48
2022/04/08 01:16:20;;;;;;;7.75;1.67;;;5.70;99.90;;;;;;5056002;28;36840;-51
2022/04/08 01:18:47;;;;;;;10.57;1.67;;;5.70;99.90;;;;;;5056257;28;40593;-49
2022/04/08 01:21:15;;;;;;;10.32;1.60;;;5.70;99.90;;;;;;5056818;28;36256;-52
2022/04/08 01:23:47;;;;;;;11.05;1.33;;;5.70;99.90;;;;;;5057488;28;36355;-51
2022/04/08 01:26:16;;;;;;;7.75;1.33;;;5.70;99.90;;;;;;5055929;28;39931;-48
2022/04/08 01:28:45;;;;;;;7.93;1.15;;;5.70;99.90;;;;;;5057634;28;42962;-51
2022/04/08 01:31:13;;;;;;;7.30;1.25;;;5.70;99.90;;;;;;5063799;28;37715;-51
2022/04/08 01:33:40;;;;;;;10.32;1.25;;;5.70;99.90;;;;;;5060274;28;38361;-57
2022/04/08 01:36:08;;;;;;;8.77;1.23;;;5.70;99.90;;;;;;5057179;28;39096;-57
2022/04/08 01:38:35;;;;;;;9.85;1.40;;;5.70;99.90;;;;;;5064482;28;37888;-58
2022/04/08 01:41:03;;;;;;;11.55;1.73;;;5.70;99.90;;;;;;5063401;28;38823;-58
2022/04/08 01:43:32;;;;;;;7.18;1.25;;;5.70;99.90;;;;;;5059348;28;39896;-58
2022/04/08 01:46:00;;;;;;;6.47;1.45;;;5.80;99.90;;;;;;5054415;28;38811;-57
2022/04/08 01:48:28;;;;;;;9.00;1.50;;;5.80;99.90;;;;;;5063525;28;36380;-57
2022/04/08 01:50:56;;;;;;;8.32;1.45;;;5.80;99.90;;;;;;5057649;28;35430;-57
2022/04/08 01:53:23;;;;;;;10.98;1.67;;;5.80;99.90;;;;;;5063174;28;38325;-57
2022/04/08 01:55:50;;;;;;;8.90;1.25;;;5.80;99.90;;;;;;5064527;28;39446;-58
2022/04/08 01:58:18;;;;;;;12.05;1.77;;;5.80;99.90;;;;;;5064508;28;38331;-56
2022/04/08 02:00:47;;;;;;;7.13;1.50;;;5.80;99.90;;;;;;5065663;28;36118;-56
2022/04/08 02:03:15;;;;;;;11.70;1.90;;;5.80;99.90;;;;;;5066183;28;39883;-57
2022/04/08 02:05:43;;;;;;;12.85;1.98;;;5.80;99.90;;;;;;5064549;28;40422;-57
2022/04/08 02:08:10;;;;;;;12.55;1.70;;;5.80;99.90;;;;;;5065581;28;37590;-57
2022/04/08 02:10:37;;;;;;;10.43;1.60;;;5.90;99.90;;;;;;5065302;28;36470;-57
2022/04/08 02:13:05;;;;;;;11.32;1.70;;;5.80;99.90;;;;;;5065607;28;39141;-57
2022/04/08 02:15:34;;;;;;;16.65;1.75;;;5.90;99.90;;;;;;5064745;28;40794;-56
2022/04/08 02:18:03;;;;;;;10.73;1.35;;;5.80;99.90;;;;;;5065297;28;38518;-56
2022/04/08 02:20:32;;;;;;;17.98;2.25;;;5.80;99.90;;;;;;5066216;28;36047;-57
2022/04/08 02:23:00;;;;;;;8.30;1.45;;;5.90;99.90;;;;;;5065103;28;36541;-57
2022/04/08 02:25:28;;;;;;;11.73;1.80;;;5.80;99.90;;;;;;5064856;28;37228;-57
2022/04/08 02:27:56;;;;;;;10.13;1.35;;;5.80;99.90;;;;;;5064962;28;39211;-57
2022/04/08 02:30:23;;;;;;;5.43;1.00;;;5.70;99.90;;;;;;5065405;28;36364;-56
2022/04/08 02:32:51;;;;;;;7.10;1.45;;;5.70;99.90;;;;;;5064183;28;38150;-58
2022/04/08 02:35:20;;;;;;;9.43;1.58;;;5.60;99.90;;;;;;5062104;28;37630;-57
2022/04/08 02:37:48;;;;;;;9.82;1.15;;;5.60;99.90;;;;;;5065871;28;20103;-57
2022/04/08 02:40:16;;;;;;;9.18;1.40;;;5.60;99.90;;;;;;5062398;28;34673;-58
2022/04/08 02:42:43;;;;;;;7.18;1.17;;;5.50;99.90;;;;;;5060654;28;39310;-57
2022/04/08 02:45:10;;;;;;;8.48;1.15;;;5.50;99.90;;;;;;5061607;28;38337;-57
2022/04/08 02:47:42;;;;;;;11.32;1.58;;;5.40;99.90;;;;;;5061154;28;36330;-57
2022/04/08 02:50:10;;;;;;;9.25;2.42;;;5.40;99.90;;;;;;5061762;28;36938;-56
2022/04/08 02:52:39;;;;;;;11.43;1.60;;;5.50;99.90;;;;;;5060786;28;38820;-57
2022/04/08 02:55:07;;;;;;;17.08;1.83;;;5.50;99.90;;;;;;5061100;28;37708;-56
2022/04/08 02:57:44;;;;;;;10.57;1.58;;;5.40;99.90;;;;;;5061191;28;36994;-58
2022/04/08 03:00:14;;;;;;;10.13;1.67;;;5.40;99.90;;;;;;5061389;28;37412;-56
2022/04/08 03:02:41;;;;;;;10.80;1.70;;;5.40;99.90;;;;;;5060704;28;39058;-56
2022/04/08 03:05:10;;;;;;;16.40;2.30;;;5.40;99.90;;;;;;5060366;28;38149;-57
2022/04/08 03:07:39;;;;;;;9.23;1.40;;;5.40;99.90;;;;;;5061153;28;42475;-57
2022/04/08 03:10:08;;;;;;;11.00;2.05;;;5.50;99.90;;;;;;5061921;28;36109;-57
2022/04/08 03:12:36;;;;;;;10.73;1.70;;;5.50;99.90;;;;;;5060737;28;36257;-57
2022/04/08 03:15:06;;;;;;;10.95;1.70;;;5.50;99.90;;;;;;5060772;28;36947;-58
2022/04/08 03:17:34;;;;;;;9.18;1.88;;;5.50;99.90;;;;;;5060519;28;38864;-56
2022/04/08 03:20:02;;;;;;;10.52;1.75;;;5.50;99.90;;;;;;5060989;28;38806;-57
2022/04/08 03:22:29;;;;;;;13.23;1.70;;;5.50;99.90;;;;;;5061207;28;36450;-58
2022/04/08 03:24:58;;;;;;;8.68;1.63;;;5.70;99.90;;;;;;5060965;28;38291;-57
2022/04/08 03:27:26;;;;;;;7.38;1.20;;;5.50;99.90;;;;;;5061290;28;38549;-51
2022/04/08 03:29:53;;;;;;;10.95;1.70;;;5.40;99.90;;;;;;5058353;28;37426;-51
2022/04/08 03:32:21;;;;;;;11.52;1.75;;;5.40;99.90;;;;;;5060124;28;38394;-51
2022/04/08 03:34:57;;;;;;;11.30;1.55;;;5.40;99.90;;;;;;5059311;28;37606;-50
2022/04/08 03:37:24;;;;;;;9.55;1.70;;;5.50;99.90;;;;;;5060351;28;38749;-51
2022/04/08 03:39:52;;;;;;;8.80;1.45;;;5.40;99.90;;;;;;5061085;28;35627;-51
2022/04/08 03:42:22;;;;;;;5.75;1.23;;;5.40;99.90;;;;;;5060253;28;36445;-51
2022/04/08 03:44:51;;;;;;;9.32;1.55;;;5.40;99.90;;;;;;5061155;28;37027;-50
2022/04/08 03:47:19;;;;;;;6.35;1.13;;;5.50;99.90;;;;;;5059941;28;38373;-50
2022/04/08 03:49:46;;;;;;;8.75;1.23;;;5.50;99.90;;;;;;5060478;28;35441;-51
2022/04/08 03:52:14;;;;;;;8.90;1.63;;;5.40;99.90;;;;;;5059808;28;37607;-49
2022/04/08 03:54:41;;;;;;;2.13;0.80;;;5.50;99.90;;;;;;5059558;28;39002;-48
2022/04/08 03:57:09;;;;;;;3.03;0.77;;;5.20;99.90;;;;;;5059332;28;36615;-48
2022/04/08 03:59:38;;;;;;;3.47;0.80;;;5.00;99.90;;;;;;5057227;28;37313;-50
2022/04/08 04:02:07;;;;;;;4.57;0.90;;;4.90;99.90;;;;;;5057306;28;37845;-49
2022/04/08 04:04:35;;;;;;;4.25;1.10;;;4.70;99.90;;;;;;5057909;28;38088;-52
2022/04/08 04:07:02;;;;;;;5.40;1.30;;;4.60;99.90;;;;;;5058024;28;36611;-53
2022/04/08 04:09:29;;;;;;;3.60;0.70;;;4.60;99.90;;;;;;5058056;28;36704;-52
2022/04/08 04:11:57;;;;;;;6.57;1.13;;;4.60;99.90;;;;;;5059217;28;37410;-52
2022/04/08 04:14:24;;;;;;;5.60;0.93;;;4.70;99.90;;;;;;5058826;28;38286;-48
2022/04/08 04:16:53;;;;;;;9.27;1.38;;;4.60;99.90;;;;;;5059791;28;39136;-50
2022/04/08 04:19:20;;;;;;;2.78;0.63;;;4.60;99.90;;;;;;5058902;28;36631;-51
2022/04/08 04:21:49;;;;;;;5.22;0.70;;;4.70;99.90;;;;;;5059926;28;37723;-50
2022/04/08 04:24:16;;;;;;;5.38;1.10;;;4.70;99.90;;;;;;5059596;28;39501;-52
2022/04/08 04:26:44;;;;;;;4.82;0.90;;;4.70;99.90;;;;;;5060350;28;37488;-52
2022/04/08 04:29:12;;;;;;;4.47;1.65;;;4.70;99.90;;;;;;5060296;28;36388;-51
2022/04/08 04:31:40;;;;;;;5.07;0.70;;;4.70;99.90;;;;;;5060072;28;37772;-51
2022/04/08 04:34:09;;;;;;;5.20;0.77;;;4.70;99.90;;;;;;5057785;28;39092;-52
2022/04/08 04:36:36;;;;;;;3.38;0.90;;;4.70;99.90;;;;;;5059695;28;37589;-51
2022/04/08 04:39:04;;;;;;;5.00;0.98;;;4.70;99.90;;;;;;5059782;28;35258;-50
2022/04/08 04:41:32;;;;;;;4.25;0.88;;;4.60;99.90;;;;;;5060500;28;37312;-48
2022/04/08 04:43:59;;;;;;;10.35;1.48;;;4.60;99.90;;;;;;5058215;28;39632;-50
2022/04/08 04:46:27;;;;;;;4.97;1.00;;;4.60;99.90;;;;;;5058914;28;38045;-51
2022/04/08 04:48:54;;;;;;;4.65;1.05;;;4.60;99.90;;;;;;5059230;28;35316;-50
2022/04/08 04:51:23;;;;;;;5.47;0.90;;;4.70;99.90;;;;;;5059333;28;38141;-51
2022/04/08 04:53:50;;;;;;;5.57;1.05;;;4.60;99.90;;;;;;5055544;28;40390;-50
2022/04/08 04:56:18;;;;;;;4.65;1.00;;;4.70;99.90;;;;;;5059015;28;37873;-52
2022/04/08 04:58:45;;;;;;;3.67;0.73;;;4.70;99.90;;;;;;5058392;28;36768;-50
2022/04/08 05:01:12;;;;;;;4.65;0.88;;;4.70;99.90;;;;;;5058469;28;38473;-47
2022/04/08 05:03:40;;;;;;;5.13;0.82;;;4.70;99.90;;;;;;5057703;28;38302;-50
2022/04/08 05:06:07;;;;;;;6.10;1.10;;;4.70;99.90;;;;;;5058716;28;37514;-48
2022/04/08 05:08:36;;;;;;;3.65;0.80;;;4.80;99.90;;;;;;5057972;28;36375;-48
2022/04/08 05:11:04;;;;;;;3.83;0.95;;;4.80;99.90;;;;;;5057422;28;38034;-53
2022/04/08 05:13:32;;;;;;;4.50;1.17;;;4.80;99.90;;;;;;5056903;28;37931;-49
2022/04/08 05:16:00;;;;;;;3.53;0.80;;;4.90;99.90;;;;;;5057686;28;38781;-50
2022/04/08 05:18:27;;;;;;;3.05;0.80;;;4.90;99.90;;;;;;5057802;28;35281;-50
2022/04/08 05:20:55;;;;;;;4.50;0.70;;;4.90;99.90;;;;;;5057111;28;39213;-49
2022/04/08 05:23:25;;;;;;;2.75;0.82;;;4.90;99.90;;;;;;5057208;28;38215;-49
2022/04/08 05:25:54;;;;;;;4.55;0.70;;;4.90;99.90;;;;;;5057254;28;37857;-48
2022/04/08 05:28:21;;;;;;;2.97;0.60;;;4.90;99.90;;;;;;5057649;28;36436;-50
2022/04/08 05:30:49;;;;;;;2.47;0.90;;;4.90;99.90;;;;;;5058119;28;37027;-49
2022/04/08 05:33:16;;;;;;;4.10;0.90;;;5.00;99.90;;;;;;5057623;28;38017;-46
2022/04/08 05:35:45;;;;;;;5.18;1.10;;;5.00;99.90;;;;;;5058275;28;37777;-56
2022/04/08 05:38:13;;;;;;;5.35;1.15;;;5.30;99.90;;;;;;5058411;28;36720;-56
2022/04/08 05:40:41;;;;;;;5.43;1.20;;;5.60;99.90;;;;;;5058802;28;36527;-56
2022/04/08 05:43:10;;;;;;;5.47;1.27;;;6.00;99.90;;;;;;5058519;28;36843;-47
2022/04/08 05:45:38;;;;;;;4.93;1.30;;;6.20;99.90;;;;;;5059350;28;37467;-56
2022/04/08 05:48:06;;;;;;;3.83;0.90;;;6.20;99.90;;;;;;5059606;28;36196;-56
2022/04/08 05:50:34;;;;;;;3.38;1.00;;;6.30;99.90;;;;;;5057999;28;36420;-57
2022/04/08 05:53:01;;;;;;;5.30;1.20;;;6.30;99.90;;;;;;5058990;28;38266;-56
2022/04/08 05:55:29;;;;;;;4.75;0.90;;;6.20;99.90;;;;;;5058099;28;37573;-56
2022/04/08 05:57:56;;;;;;;3.20;0.68;;;6.20;99.90;;;;;;5059513;28;36831;-56
2022/04/08 06:00:25;;;;;;;3.75;0.88;;;6.20;99.90;;;;;;5058797;28;37325;-50
2022/04/08 06:02:55;;;;;;;4.55;1.00;;;6.30;99.90;;;;;;5056294;28;38298;-48
2022/04/08 06:05:23;;;;;;;4.65;1.00;;;6.70;99.90;;;;;;5056459;28;38657;-49
2022/04/08 06:07:53;;;;;;;3.95;0.90;;;6.80;99.90;;;;;;5056945;28;35555;-48
2022/04/08 06:10:22;;;;;;;4.38;1.10;;;6.70;99.90;;;;;;5057880;28;39142;-48
2022/04/08 06:12:49;;;;;;;5.15;1.05;;;6.70;99.90;;;;;;5058253;28;39126;-49
2022/04/08 06:15:17;;;;;;;7.90;1.15;;;6.90;99.90;;;;;;5058456;28;37602;-48
2022/04/08 06:17:47;;;;;;;6.85;1.15;;;7.60;99.80;;;;;;5060705;28;35443;-51
2022/04/08 06:20:16;;;;;;;4.13;1.13;;;8.20;99.10;;;;;;5059822;28;37719;-49
2022/04/08 06:22:44;;;;;;;7.93;1.33;;;8.90;98.40;;;;;;5058798;28;38187;-49
2022/04/08 06:25:13;;;;;;;9.98;1.33;;;9.40;97.00;;;;;;5061366;28;39677;-47
2022/04/08 06:27:44;;;;;;;5.35;1.38;;;9.70;96.80;;;;;;5060689;28;37917;-51
2022/04/08 06:30:14;;;;;;;4.60;1.20;;;9.90;95.70;;;;;;5059435;28;38040;-50
2022/04/08 06:32:43;;;;;;;5.43;1.13;;;9.80;95.40;;;;;;5058548;28;38612;-49
2022/04/08 06:35:12;;;;;;;6.35;1.20;;;9.80;95.90;;;;;;5058605;28;36633;-50
2022/04/08 06:37:40;;;;;;;8.65;1.23;;;9.70;95.90;;;;;;5058434;28;36542;-49
2022/04/08 06:40:10;;;;;;;9.20;1.35;;;9.60;96.30;;;;;;5058488;28;37692;-48
2022/04/08 06:42:38;;;;;;;6.20;1.60;;;9.60;96.60;;;;;;5058049;28;39264;-56
2022/04/08 06:45:07;;;;;;;6.60;1.35;;;9.60;96.80;;;;;;5059790;28;37885;-57
2022/04/08 06:47:34;;;;;;;7.78;1.50;;;9.50;96.40;;;;;;5058247;28;36561;-56
2022/04/08 06:50:02;;;;;;;7.40;1.50;;;9.50;96.90;;;;;;5058778;28;38245;-49
2022/04/08 06:52:31;;;;;;;11.07;1.55;;;9.30;96.50;;;;;;5058805;28;38067;-46
2022/04/08 06:54:58;;;;;;;10.57;1.95;;;9.30;97.30;;;;;;5059003;28;38624;-47
2022/04/08 06:57:25;;;;;;;7.82;1.77;;;9.40;97.30;;;;;;5060236;28;36404;-48
2022/04/08 06:59:56;;;;;;;7.50;1.55;;;9.50;97.40;;;;;;5061220;28;38569;-50
2022/04/08 07:02:23;;;;;;;4.75;1.20;;;9.50;97.40;;;;;;5060623;28;40999;-49
2022/04/08 07:04:51;;;;;;;8.57;1.48;;;9.50;97.60;;;;;;5053731;28;39826;-48
2022/04/08 07:07:18;;;;;;;2.88;1.00;;;9.70;97.40;;;;;;5055221;28;36571;-52
2022/04/08 07:09:47;;;;;;;7.20;1.67;;;9.90;96.50;;;;;;5058791;28;37055;-49
2022/04/08 07:12:14;;;;;;;10.00;1.70;;;10.00;96.30;;;;;;5059883;28;38451;-56
2022/04/08 07:14:42;;;;;;;8.40;1.73;;;10.00;96.20;;;;;;5059288;28;39161;-57
2022/04/08 07:17:09;;;;;;;9.48;1.60;;;10.10;96.00;;;;;;5059451;28;36621;-57
2022/04/08 07:19:37;;;;;;;9.05;1.33;;;10.10;95.70;;;;;;5057654;28;37124;-56
2022/04/08 07:22:04;;;;;;;10.07;1.70;;;10.20;95.60;;;;;;5059648;28;38913;-56
2022/04/08 07:24:31;;;;;;;14.38;1.80;;;10.30;95.30;;;;;;5059774;28;38604;-57
2022/04/08 07:27:00;;;;;;;6.10;1.30;;;10.10;95.30;;;;;;5060344;28;36721;-55
2022/04/08 07:29:28;;;;;;;9.27;1.73;;;10.20;95.70;;;;;;5060914;28;37083;-57
2022/04/08 07:31:55;;;;;;;5.57;1.17;;;10.20;95.80;;;;;;5058813;28;38159;-56
2022/04/08 07:34:22;;;;;;;8.18;1.33;;;10.00;95.50;;;;;;5057702;28;36628;-57
2022/04/08 07:36:50;;;;;;;6.28;1.25;;;9.70;95.60;;;;;;5061072;28;36796;-56
2022/04/08 07:39:17;;;;;;;5.45;1.30;;;9.20;96.00;;;;;;5060909;28;37755;-56
2022/04/08 07:41:45;;;;;;;6.18;1.42;;;8.90;96.80;;;;;;5061353;28;39986;-56
2022/04/08 07:44:13;;;;;;;6.38;1.60;;;8.60;97.30;;;;;;5060944;28;37734;-50
2022/04/08 07:46:41;;;;;;;7.50;1.40;;;8.50;97.90;;;;;;5061298;28;36938;-56
2022/04/08 07:49:11;;;;;;;5.50;1.65;;;8.70;99.40;;;;;;5059294;28;37610;-56
2022/04/08 07:51:39;;;;;;;7.43;1.77;;;9.00;99.90;;;;;;5060103;28;38360;-57
2022/04/08 07:54:06;;;;;;;7.80;1.70;;;9.40;99.90;;;;;;5058888;28;38949;-58
2022/04/08 07:56:35;;;;;;;6.88;1.55;;;9.80;99.90;;;;;;5059311;28;37534;-57
2022/04/08 07:59:03;;;;;;;5.30;1.42;;;10.00;99.90;;;;;;5058888;28;38317;-57
2022/04/08 08:01:32;;;;;;;8.60;1.67;;;10.20;99.40;;;;;;5057821;28;38168;-50
2022/04/08 08:04:02;;;;;;;6.88;1.55;;;10.40;99.50;;;;;;5059359;28;38508;-49
2022/04/08 08:06:30;;;;;;;7.20;1.60;;;10.30;98.70;;;;;;5060396;28;37752;-48
2022/04/08 08:08:58;;;;;;;13.32;1.67;;;10.20;98.00;;;;;;5060701;28;37439;-50
2022/04/08 08:11:26;;;;;;;7.78;1.45;;;10.10;98.20;;;;;;5060226;28;39577;-50
2022/04/08 08:13:58;;;;;;;7.70;2.15;;;9.90;97.50;;;;;;5059239;28;37825;-57
2022/04/08 08:16:25;;;;;;;15.68;2.10;;;9.70;97.50;;;;;;5060234;28;36413;-52
2022/04/08 08:18:57;;;;;;;6.07;1.60;;;10.00;97.60;;;;;;5059661;28;37468;-48
2022/04/08 08:21:25;;;;;;;6.35;1.38;;;10.40;97.10;;;;;;5060443;28;40217;-50
2022/04/08 08:23:53;;;;;;;8.02;1.55;;;10.80;96.60;;;;;;5059937;28;36666;-51
2022/04/08 08:26:20;;;;;;;5.35;1.60;;;11.30;96.50;;;;;;5058522;28;36935;-47
2022/04/08 08:28:47;;;;;;;10.05;1.67;;;11.80;94.70;;;;;;5057584;28;37449;-56
2022/04/08 08:31:16;;;;;;;10.05;1.48;;;11.80;93.70;;;;;;5058542;28;37949;-57
2022/04/08 08:33:44;;;;;;;10.20;1.60;;;11.70;93.20;;;;;;5055438;28;36630;-57
2022/04/08 08:36:13;;;;;;;9.40;1.20;;;11.40;93.20;;;;;;5059838;28;37758;-56
2022/04/08 08:38:41;;;;;;;8.65;1.95;;;11.00;92.50;;;;;;5058388;28;37398;-57
2022/04/08 08:41:11;;;;;;;8.90;1.60;;;10.70;93.30;;;;;;5058601;28;38805;-56
2022/04/08 08:43:39;;;;;;;9.32;2.67;;;10.60;93.20;;;;;;5057693;28;37688;-56
2022/04/08 08:46:07;;;;;;;9.45;2.00;;;10.40;92.80;;;;;;5057882;28;38020;-57
2022/04/08 08:48:38;;;;;;;11.18;1.70;;;10.30;92.50;;;;;;5058844;28;36375;-56
2022/04/08 08:51:07;;;;;;;7.55;1.40;;;10.10;92.30;;;;;;5058319;28;37204;-49
2022/04/08 08:53:36;;;;;;;6.32;1.33;;;9.90;92.80;;;;;;5057081;28;36586;-49
2022/04/08 08:56:03;;;;;;;7.50;1.38;;;9.80;93.20;;;;;;5057912;28;36829;-49
2022/04/08 08:58:34;;;;;;;7.55;2.20;;;9.80;93.60;;;;;;5057575;28;36458;-51
2022/04/08 09:01:01;;;;;;;8.07;1.20;;;9.80;93.40;;;;;;5058417;28;38261;-50
2022/04/08 09:03:29;;;;;;;8.55;1.10;;;9.70;92.70;;;;;;5055280;28;37679;-51
2022/04/08 09:06:05;;;;;;;6.70;1.20;;;9.50;92.90;;;;;;5057509;28;35285;-48
2022/04/08 09:08:35;;;;;;;7.75;1.67;;;9.30;93.30;;;;;;5057470;28;37415;-50
2022/04/08 09:11:03;;;;;;;12.38;1.52;;;9.10;93.80;;;;;;5058336;28;37951;-49
2022/04/08 09:13:31;;;;;;;8.20;1.65;;;9.10;94.50;;;;;;5056878;28;38215;-57
2022/04/08 09:15:59;;;;;;;8.32;1.95;;;9.70;96.40;;;;;;5057897;28;38002;-57
2022/04/08 09:18:30;;;;;;;7.97;1.65;;;10.30;96.50;;;;;;5052912;28;39903;-56
2022/04/08 09:20:58;;;;;;;6.53;1.75;;;10.70;95.20;;;;;;5055976;28;37682;-57
2022/04/08 09:23:28;;;;;;;8.57;1.80;;;10.70;94.10;;;;;;5057552;28;38788;-56
2022/04/08 09:26:02;;;;;;;3.28;0.80;;;10.40;93.60;;;;;;5056566;28;36024;-57
2022/04/08 09:28:35;;;;;;;2.38;0.63;;;9.90;92.70;;;;;;5060607;28;38178;-57
2022/04/08 09:31:03;;;;;;;5.00;1.23;;;9.40;93.70;;;;;;5056138;28;37689;-57
2022/04/08 09:33:31;;;;;;;3.45;1.00;;;8.90;94.60;;;;;;5056931;28;37300;-56
2022/04/08 09:35:59;;;;;;;9.15;1.10;;;8.70;95.70;;;;;;5059536;28;36406;-57
2022/04/08 09:38:31;;;;;;;6.50;1.02;;;8.50;96.70;;;;;;5058637;28;37729;-56
2022/04/08 09:41:06;;;;;;;4.90;0.73;;;8.50;97.50;;;;;;5058336;28;39041;-57
2022/04/08 09:43:34;;;;;;;5.75;1.40;;;8.60;98.50;;;;;;5058602;28;38826;-57
2022/04/08 09:46:15;;;;;;;4.97;1.10;;;9.00;99.90;;;;;;5058646;28;36687;-56
2022/04/08 09:48:43;;;;;;;7.75;1.83;;;9.70;99.90;;;;;;5056919;28;37002;-57
2022/04/08 09:51:13;;;;;;;4.72;1.27;;;10.30;99.90;;;;;;5058901;28;38438;-57
2022/04/08 09:53:42;;;;;;;9.85;1.35;;;10.90;99.90;;;;;;5059678;28;38397;-57
2022/04/08 09:56:18;;;;;;;5.80;1.08;;;11.40;99.70;;;;;;5059948;28;35806;-56
2022/04/08 09:58:55;;;;;;;7.82;1.60;;;11.80;98.40;;;;;;5060891;28;38581;-56
2022/04/08 10:01:24;;;;;;;4.85;1.35;;;12.00;97.50;;;;;;5062401;28;38504;-50
2022/04/08 10:03:52;;;;;;;7.80;1.52;;;11.80;95.50;;;;;;5059292;28;40754;-51
2022/04/08 10:06:21;;;;;;;5.80;1.10;;;11.30;94.60;;;;;;5062332;28;37299;-48
2022/04/08 10:08:49;;;;;;;6.57;1.13;;;10.80;94.10;;;;;;5063286;28;37017;-56
2022/04/08 10:11:24;;;;;;;4.30;0.93;;;10.40;94.50;;;;;;5062553;28;38180;-56
2022/04/08 10:14:14;;;;;;;7.53;1.00;;;10.10;94.50;;;;;;5063038;28;38135;-57
2022/04/08 10:16:42;;;;;;;2.60;0.85;;;10.10;96.00;;;;;;5061362;28;37697;-57
2022/04/08 10:19:13;;;;;;;6.15;1.17;;;10.60;96.90;;;;;;5061898;28;38024;-57
2022/04/08 10:21:41;;;;;;;11.70;2.53;;;10.90;95.90;;;;;;5061397;28;38136;-56
2022/04/08 10:24:10;;;;;;;4.10;1.30;;;10.80;94.90;;;;;;5060470;28;37655;-57
2022/04/08 10:26:57;;;;;;;6.68;1.20;;;10.60;94.30;;;;;;5061038;28;37297;-56
2022/04/08 10:29:24;;;;;;;7.22;1.42;;;10.60;94.70;;;;;;5061571;28;39535;-56
2022/04/08 10:32:00;;;;;;;5.88;1.13;;;10.90;96.30;;;;;;5061478;28;37340;-57
2022/04/08 10:34:29;;;;;;;7.80;1.38;;;11.40;96.60;;;;;;5060871;28;37881;-57
2022/04/08 10:36:56;;;;;;;5.22;1.25;;;11.50;95.10;;;;;;5061771;28;36656;-49
2022/04/08 10:39:24;;;;;;;4.75;0.93;;;11.40;93.90;;;;;;5062057;28;39369;-52
2022/04/08 10:41:56;;;;;;;3.60;0.70;;;11.10;93.20;;;;;;5062627;28;38018;-51
2022/04/08 10:44:34;;;;;;;1.98;0.50;;;10.70;93.20;;;;;;5062102;28;37499;-51
2022/04/08 10:47:03;;;;;;;3.95;0.95;;;10.20;93.30;;;;;;5061322;28;37502;-51
2022/04/08 10:49:32;;;;;;;7.32;0.80;;;9.90;93.80;;;;;;5061895;28;42896;-50
2022/04/08 10:52:00;;;;;;;6.57;1.00;;;9.70;94.10;;;;;;5062097;28;37630;-56
2022/04/08 10:54:45;;;;;;;6.40;1.20;;;9.60;94.30;;;;;;5059600;28;38444;-56
2022/04/08 10:57:14;;;;;;;12.68;1.58;;;9.70;96.80;;;;;;5059667;28;36400;-56
2022/04/08 10:59:52;;;;;;;7.32;1.50;;;9.80;95.90;;;;;;5058014;28;36492;-51
2022/04/08 11:02:20;;;;;;;8.50;1.42;;;10.10;96.60;;;;;;5053410;28;38619;-56
2022/04/08 11:04:48;;;;;;;9.73;1.35;;;10.40;96.50;;;;;;5056756;28;37899;-58
2022/04/08 11:07:15;;;;;;;9.38;2.08;;;10.60;95.90;;;;;;5058487;28;36860;-56
2022/04/08 11:09:44;;;;;;;8.45;1.30;;;10.60;94.90;;;;;;5056760;28;37243;-57
2022/04/08 11:12:11;;;;;;;5.43;1.17;;;10.50;94.30;;;;;;5057290;28;38446;-56
2022/04/08 11:14:41;;;;;;;5.00;1.15;;;10.30;93.30;;;;;;5056563;28;38089;-57
2022/04/08 11:17:08;;;;;;;7.22;0.98;;;10.10;93.10;;;;;;5056054;28;36837;-57
2022/04/08 11:19:36;;;;;;;7.35;1.30;;;10.30;93.90;;;;;;5055325;28;37511;-56
2022/04/08 11:22:11;;;;;;;4.40;0.90;;;10.20;94.70;;;;;;5057841;28;38132;-57
2022/04/08 11:24:40;;;;;;;7.38;1.10;;;10.60;95.70;;;;;;5058805;28;39133;-57
2022/04/08 11:27:10;;;;;;;6.05;1.00;;;10.80;94.80;;;;;;5059308;28;37497;-57
2022/04/08 11:29:40;;;;;;;4.97;1.13;;;11.20;94.40;;;;;;5059040;28;36417;-57
2022/04/08 11:32:09;;;;;;;9.95;1.00;;;11.50;93.90;;;;;;5058087;28;38987;-56
2022/04/08 11:34:36;;;;;;;7.63;1.15;;;11.80;93.90;;;;;;5058386;28;38149;-57
2022/04/08 11:37:04;;;;;;;5.47;1.05;;;12.00;93.60;;;;;;5059893;28;37139;-57
2022/04/08 11:39:32;;;;;;;9.27;1.15;;;12.00;92.90;;;;;;5060461;28;36886;-57
2022/04/08 11:42:02;;;;;;;8.73;1.77;;;11.90;92.10;;;;;;5060309;28;38226;-49
2022/04/08 11:44:29;;;;;;;8.25;1.17;;;11.90;92.20;;;;;;5058348;28;36799;-49
2022/04/08 11:47:08;;;;;;;7.47;1.50;;;11.90;91.70;;;;;;5056105;28;36648;-50
2022/04/08 11:49:35;;;;;;;5.07;1.10;;;11.70;89.90;;;;;;5057480;28;37841;-48
2022/04/08 11:52:03;;;;;;;3.88;1.00;;;11.60;90.20;;;;;;5058247;28;37614;-49
2022/04/08 11:54:36;;;;;;;7.68;1.35;;;11.40;89.20;;;;;;5058290;28;41259;-58
2022/04/08 11:57:05;;;;;;;3.83;0.90;;;11.20;88.00;;;;;;5059619;28;37342;-57
2022/04/08 11:59:33;;;;;;;5.68;1.35;;;11.00;86.70;;;;;;5055053;28;36386;-56
2022/04/08 12:02:01;;;;;;;4.50;1.13;;;10.80;86.70;;;;;;5058331;28;37213;-58
2022/04/08 12:04:30;;;;;;;6.68;1.02;;;10.70;87.10;;;;;;5060172;28;37762;-56
2022/04/08 12:06:58;;;;;;;8.65;1.25;;;10.70;88.70;;;;;;5060603;28;35457;-52
2022/04/08 12:09:25;;;;;;;6.85;1.60;;;10.80;87.90;;;;;;5059893;28;37250;-56
2022/04/08 12:11:56;;;;;;;7.85;1.73;;;10.80;87.30;;;;;;5058048;28;38296;-57
2022/04/08 12:14:24;;;;;;;6.53;1.20;;;10.80;86.40;;;;;;5059740;28;37501;-56
2022/04/08 12:17:06;;;;;;;5.47;1.63;;;10.70;85.70;;;;;;5059756;28;36014;-56
2022/04/08 12:19:41;;;;;;;8.15;1.10;;;10.60;85.50;;;;;;5057369;28;38602;-57
2022/04/08 12:22:13;;;;;;;7.85;1.00;;;10.60;85.60;;;;;;5059700;28;37624;-56
2022/04/08 12:24:42;;;;;;;8.45;1.50;;;10.50;85.60;;;;;;5059622;28;38948;-49
2022/04/08 12:27:13;;;;;;;5.95;1.00;;;10.50;86.90;;;;;;5059646;28;35061;-50
2022/04/08 12:29:40;;;;;;;6.07;1.38;;;10.40;88.20;;;;;;5060106;28;37051;-53
2022/04/08 12:32:14;;;;;;;4.75;0.90;;;10.20;90.00;;;;;;5059075;28;38133;-51
2022/04/08 12:34:43;;;;;;;3.33;0.68;;;10.10;90.80;;;;;;5058090;28;39232;-51
2022/04/08 12:37:11;;;;;;;5.68;0.95;;;10.00;91.00;;;;;;5058853;28;37381;-51
2022/04/08 12:39:39;;;;;;;4.47;0.90;;;10.00;91.40;;;;;;5059484;28;38625;-50
2022/04/08 12:42:06;;;;;;;5.60;0.90;;;9.90;91.80;;;;;;5057210;28;36937;-50
2022/04/08 12:44:37;;;;;;;5.10;1.00;;;10.00;92.40;;;;;;5059740;28;37362;-56
2022/04/08 12:47:04;;;;;;;4.45;1.13;;;10.20;92.70;;;;;;5059545;28;36471;-48
2022/04/08 12:49:32;;;;;;;4.63;1.15;;;10.30;92.00;;;;;;5057181;28;39330;-48
2022/04/08 12:52:00;;;;;;;10.15;1.48;;;10.40;91.10;;;;;;5053294;28;38977;-50
2022/04/08 12:54:30;;;;;;;9.57;1.58;;;10.50;90.30;;;;;;5057653;28;42787;-47
2022/04/08 12:56:57;;;;;;;7.70;1.23;;;10.50;89.00;;;;;;5057987;28;38225;-57
2022/04/08 12:59:26;;;;;;;5.72;1.00;;;10.60;89.00;;;;;;5056737;28;37482;-57
2022/04/08 13:01:54;;;;;;;6.68;1.75;;;10.70;89.50;;;;;;5057251;28;39127;-57